Time;durP1;ratioP1;P1;durP2;ratioP2;P2;SDS_P1;SDS_P2;PMS_P1;PMS_P2;Temp;Humidity;BMP_temperature;BMP_pressure;BME280_temperature;BME280_humidity;BME280_pressure;Samples;Min_cycle;Max_cycle;Signal;HPM_P1;HPM_P2
2023/11/22 00:00:21;;;;;;;8.80;7.20;;;;;;;-3.56;100.00;99947.96;435671;1254;140251;-63
2023/11/22 00:10:28;;;;;;;8.80;7.40;;;;;;;-3.67;100.00;99959.27;435850;1249;140177;-64
2023/11/22 00:20:34;;;;;;;9.50;7.80;;;;;;;-3.77;100.00;99986.80;436289;1254;139247;-64
2023/11/22 00:30:41;;;;;;;10.40;7.40;;;;;;;-3.83;100.00;100004.23;435850;1250;140436;-64
2023/11/22 00:40:47;;;;;;;8.70;6.80;;;;;;;-3.78;100.00;100023.41;435586;1253;140432;-64
2023/11/22 00:50:53;;;;;;;7.50;6.30;;;;;;;-3.72;100.00;100035.74;435950;1254;139603;-64
2023/11/22 01:01:00;;;;;;;8.60;7.40;;;;;;;-3.66;100.00;100032.33;437292;1249;141325;-64
2023/11/22 01:11:07;;;;;;;9.70;7.70;;;;;;;-3.63;100.00;100032.67;436760;1250;140312;-70
2023/11/22 01:21:14;;;;;;;9.10;7.60;;;;;;;-3.63;100.00;100024.45;436525;1254;139773;-64
2023/11/22 01:31:20;;;;;;;8.20;7.20;;;;;;;-3.64;100.00;100026.86;436819;1251;139603;-65
2023/11/22 01:41:28;;;;;;;9.70;6.70;;;;;;;-3.60;100.00;100033.70;435994;1251;140220;-65
2023/11/22 01:51:35;;;;;;;8.40;6.90;;;;;;;-3.59;100.00;100043.63;436007;1251;140130;-64
2023/11/22 02:01:41;;;;;;;8.90;7.40;;;;;;;-3.59;100.00;100065.88;435437;1250;140502;-64
2023/11/22 02:11:49;;;;;;;8.50;6.90;;;;;;;-3.58;100.00;100073.92;435546;1252;139987;-64
2023/11/22 02:21:55;;;;;;;8.90;6.20;;;;;;;-3.58;100.00;100079.08;435959;1251;139681;-64
2023/11/22 02:32:02;;;;;;;6.90;5.80;;;;;;;-3.57;100.00;100083.87;435414;1251;139946;-63
2023/11/22 02:42:08;;;;;;;7.10;6.10;;;;;;;-3.58;100.00;100100.64;435686;1254;140477;-64
2023/11/22 02:52:14;;;;;;;9.00;6.20;;;;;;;-3.62;100.00;100106.61;435542;1254;140330;-65
2023/11/22 03:02:21;;;;;;;7.10;6.30;;;;;;;-3.66;100.00;100131.08;436816;1250;140035;-64
2023/11/22 03:12:27;;;;;;;7.50;5.90;;;;;;;-3.69;100.00;100143.22;436737;1249;139581;-64
2023/11/22 03:22:35;;;;;;;7.50;5.60;;;;;;;-3.69;100.00;100152.11;435623;1248;140069;-64
2023/11/22 03:32:43;;;;;;;7.50;6.00;;;;;;;-3.65;100.00;100172.84;435992;1248;139564;-64
2023/11/22 03:42:50;;;;;;;6.70;5.00;;;;;;;-3.60;100.00;100180.73;435864;1250;141371;-65
2023/11/22 03:52:56;;;;;;;6.20;5.60;;;;;;;-3.61;100.00;100201.10;435777;1252;140974;-64
2023/11/22 04:03:03;;;;;;;6.90;5.40;;;;;;;-3.65;100.00;100230.34;435665;1251;139581;-64
2023/11/22 04:13:09;;;;;;;5.50;4.40;;;;;;;-3.68;100.00;100241.10;435879;1253;139997;-63
2023/11/22 04:23:16;;;;;;;5.50;4.30;;;;;;;-3.74;100.00;100249.98;435904;1251;141617;-64
2023/11/22 04:33:22;;;;;;;5.30;4.30;;;;;;;-3.77;100.00;100267.41;435872;1250;139893;-65
2023/11/22 04:43:29;;;;;;;7.50;5.40;;;;;;;-3.81;100.00;100277.82;435616;1252;139862;-65
2023/11/22 04:53:35;;;;;;;5.60;4.70;;;;;;;-3.83;100.00;100281.23;436019;1250;140895;-64
2023/11/22 05:03:42;;;;;;;5.20;4.70;;;;;;;-3.92;100.00;100283.40;436478;1253;139637;-65
2023/11/22 05:13:48;;;;;;;5.90;4.00;;;;;;;-4.08;100.00;100296.80;435938;1251;140631;-64
2023/11/22 05:23:56;;;;;;;4.90;4.50;;;;;;;-4.25;100.00;100327.95;435598;1253;140275;-65
2023/11/22 05:34:02;;;;;;;4.50;3.70;;;;;;;-4.45;100.00;100340.43;435715;1253;139992;-64
2023/11/22 05:44:08;;;;;;;5.60;4.10;;;;;;;-4.76;100.00;100358.23;436088;1251;140872;-65
2023/11/22 05:54:16;;;;;;;5.70;4.60;;;;;;;-5.13;100.00;100364.45;435764;1253;139972;-64
2023/11/22 06:04:22;;;;;;;6.30;4.90;;;;;;;-5.45;100.00;100383.15;436782;1253;141314;-64
2023/11/22 06:14:29;;;;;;;4.90;4.20;;;;;;;-5.69;100.00;100393.88;436442;1250;140134;-64
2023/11/22 06:24:36;;;;;;;8.10;3.90;;;;;;;-5.84;100.00;100390.23;435614;1254;140555;-65
2023/11/22 06:34:42;;;;;;;6.80;4.70;;;;;;;-5.92;100.00;100414.66;435960;1251;141340;-64
2023/11/22 06:44:49;;;;;;;6.90;5.00;;;;;;;-5.91;100.00;100442.66;435547;1254;139569;-66
2023/11/22 06:54:56;;;;;;;5.90;5.40;;;;;;;-5.86;100.00;100456.89;435437;1250;140447;-64
2023/11/22 07:05:02;;;;;;;5.90;5.10;;;;;;;-5.44;100.00;100486.21;436367;1253;140142;-64
2023/11/22 07:15:11;;;;;;;7.50;4.50;;;;;;;-3.05;100.00;100489.39;436310;1253;139988;-72
2023/11/22 07:25:19;;;;;;;8.70;5.00;;;;;;;0.46;100.00;100493.77;435840;1250;140331;-73
2023/11/22 07:35:23;;;;;;;;;;;;;;;3.68;99.62;100483.73;436215;1252;140191;-74
2023/11/22 07:45:30;;;;;;;5.70;4.40;;;;;;;5.83;96.41;100464.64;436434;1250;125764;-79
2023/11/22 07:55:37;;;;;;;5.80;5.30;;;;;;;7.35;91.93;100472.36;438503;1251;138722;-69
2023/11/22 08:05:48;;;;;;;5.60;4.70;;;;;;;8.23;87.75;100497.86;436507;1252;139655;-71
2023/11/22 08:15:54;;;;;;;5.10;4.60;;;;;;;10.39;87.72;100506.42;437299;1250;138916;-76
2023/11/22 08:26:02;;;;;;;5.10;4.70;;;;;;;12.30;84.81;100508.83;438701;1254;138992;-69
2023/11/22 08:36:08;;;;;;;;;;;;;;;13.48;79.74;100517.48;436103;1254;139164;-69
2023/11/22 08:46:15;;;;;;;7.30;5.40;;;;;;;13.12;74.29;100538.79;437164;1254;125774;-68
2023/11/22 08:56:22;;;;;;;6.60;5.50;;;;;;;12.96;70.37;100555.73;436421;1253;139275;-72
2023/11/22 09:06:29;;;;;;;6.90;5.00;;;;;;;13.67;70.96;100557.96;435784;1253;140650;-65
2023/11/22 09:16:39;;;;;;;5.60;5.10;;;;;;;15.33;70.69;100563.45;436229;1251;139154;-66
2023/11/22 09:26:46;;;;;;;7.50;6.50;;;;;;;14.09;64.55;100566.91;435861;1250;138706;-67
2023/11/22 09:36:52;;;;;;;5.50;5.00;;;;;;;9.06;62.96;100557.70;436050;1253;139974;-74
2023/11/22 09:46:59;;;;;;;6.10;4.00;;;;;;;5.29;64.23;100542.86;435982;1253;140963;-75
2023/11/22 09:57:08;;;;;;;5.40;4.50;;;;;;;2.65;65.03;100515.95;437650;1253;138225;-69
2023/11/22 10:07:15;;;;;;;6.40;5.40;;;;;;;0.89;62.60;100521.13;436482;1248;138728;-67
2023/11/22 10:17:20;;;;;;;;;;;;;;;-0.46;62.75;100532.83;436464;1253;138579;-74
2023/11/22 10:27:28;;;;;;;6.00;4.90;;;;;;;-1.29;64.08;100548.97;437689;1254;124812;-69
2023/11/22 10:37:35;;;;;;;7.70;5.20;;;;;;;-1.99;65.32;100571.34;435928;1248;138702;-70
2023/11/22 10:47:43;;;;;;;8.60;5.50;;;;;;;-2.18;66.68;100573.84;435588;1250;139163;-69
2023/11/22 10:57:52;;;;;;;9.70;6.50;;;;;;;-2.30;67.68;100557.31;435801;1253;139683;-68
2023/11/22 11:08:10;;;;;;;6.40;5.50;;;;;;;-2.45;67.82;100559.65;435728;1253;140497;-68
2023/11/22 11:18:18;;;;;;;6.50;5.40;;;;;;;-2.64;68.70;100563.48;436699;1254;139761;-68
2023/11/22 11:28:26;;;;;;;7.10;5.60;;;;;;;-2.62;69.35;100584.07;436422;1253;139087;-69
2023/11/22 11:38:35;;;;;;;5.20;4.20;;;;;;;-2.55;69.93;100587.54;436104;1250;138773;-68
2023/11/22 11:48:45;;;;;;;9.60;6.80;;;;;;;-2.57;69.75;100581.02;435665;1251;139912;-69
2023/11/22 11:58:53;;;;;;;6.60;4.90;;;;;;;-2.51;70.07;100599.22;435628;1254;164213;-68
2023/11/22 12:08:59;;;;;;;7.10;5.00;;;;;;;-2.48;70.27;100598.73;436384;1250;139242;-68
2023/11/22 12:19:06;;;;;;;8.20;6.00;;;;;;;-2.46;70.51;100586.39;436390;1250;139466;-70
2023/11/22 12:29:14;;;;;;;6.10;5.40;;;;;;;-2.43;71.05;100580.06;435691;1254;140331;-65
2023/11/22 12:39:23;;;;;;;6.90;4.70;;;;;;;-2.44;70.89;100574.23;436325;1254;138626;-68
2023/11/22 12:49:31;;;;;;;6.40;4.90;;;;;;;-2.45;71.15;100580.91;438219;1253;140125;-65
2023/11/22 12:59:37;;;;;;;6.90;4.10;;;;;;;-2.45;70.88;100602.52;436751;1253;139280;-66
2023/11/22 13:09:44;;;;;;;6.80;5.00;;;;;;;-2.46;71.03;100588.11;435842;1253;139158;-66
2023/11/22 13:19:51;;;;;;;6.10;4.60;;;;;;;-2.46;71.02;100569.77;435783;1255;138855;-68
2023/11/22 13:29:58;;;;;;;7.20;5.30;;;;;;;-2.50;70.99;100595.12;436806;1254;139088;-69
2023/11/22 13:40:08;;;;;;;5.80;4.40;;;;;;;-2.54;71.39;100618.92;435792;1253;139228;-73
2023/11/22 13:50:18;;;;;;;5.40;4.90;;;;;;;-2.63;70.72;100638.58;439923;1253;138622;-67
2023/11/22 14:00:29;;;;;;;4.30;3.90;;;;;;;-2.75;70.83;100628.38;437163;1251;138662;-65
2023/11/22 14:10:36;;;;;;;7.30;5.30;;;;;;;-2.82;70.81;100609.65;436425;1254;139101;-77
2023/11/22 14:20:42;;;;;;;9.70;6.50;;;;;;;-2.92;70.88;100587.63;437832;1253;139334;-74
2023/11/22 14:30:54;;;;;;;6.70;5.70;;;;;;;-3.08;71.03;100572.79;435806;1253;139441;-73
2023/11/22 14:41:01;;;;;;;8.00;6.40;;;;;;;-3.33;71.42;100548.27;437405;1253;139044;-72
2023/11/22 14:51:09;;;;;;;12.50;10.10;;;;;;;-3.61;72.09;100539.96;438053;1253;138578;-71
2023/11/22 15:01:15;;;;;;;17.50;11.60;;;;;;;-3.86;72.53;100563.85;441106;1251;139458;-74
2023/11/22 15:11:23;;;;;;;24.20;18.60;;;;;;;-4.12;73.49;100576.05;439893;1254;139498;-68
2023/11/22 15:21:29;;;;;;;28.50;20.90;;;;;;;-4.37;74.49;100588.39;436264;1253;139311;-69
2023/11/22 15:31:36;;;;;;;32.20;25.00;;;;;;;-4.53;75.92;100586.64;435817;1254;139837;-66
2023/11/22 15:41:43;;;;;;;46.80;33.30;;;;;;;-4.72;76.89;100550.15;438783;1254;140091;-67
2023/11/22 15:51:50;;;;;;;51.20;36.70;;;;;;;-4.88;77.68;100559.14;435438;1252;139990;-69
2023/11/22 16:01:56;;;;;;;52.40;39.40;;;;;;;-5.03;78.41;100552.77;437118;1254;140115;-75
2023/11/22 16:12:02;;;;;;;61.00;46.70;;;;;;;-5.18;79.37;100583.09;439383;1251;140320;-74
2023/11/22 16:22:09;;;;;;;74.60;52.70;;;;;;;-5.30;80.39;100614.13;439775;1251;139914;-72
2023/11/22 16:32:16;;;;;;;78.20;57.80;;;;;;;-5.38;81.13;100618.27;439630;1253;139513;-74
2023/11/22 16:42:22;;;;;;;82.70;62.80;;;;;;;-5.48;81.98;100641.81;439613;1253;140634;-75
2023/11/22 16:52:28;;;;;;;84.70;64.10;;;;;;;-5.60;82.77;100638.68;440088;1254;141371;-72
2023/11/22 17:02:36;;;;;;;96.90;72.00;;;;;;;-5.77;83.27;100624.04;435521;1254;139650;-72
2023/11/22 17:12:43;;;;;;;87.60;67.50;;;;;;;-5.93;83.68;100606.66;436018;1253;140210;-73
2023/11/22 17:22:50;;;;;;;90.80;67.20;;;;;;;-6.04;84.55;100592.48;434985;1251;139644;-74
2023/11/22 17:32:56;;;;;;;104.80;76.90;;;;;;;-6.10;85.35;100595.27;435651;1251;140514;-73
2023/11/22 17:43:02;;;;;;;252.00;148.90;;;;;;;-6.13;86.17;100616.86;435629;1253;140695;-72
2023/11/22 17:53:09;;;;;;;114.80;76.90;;;;;;;-6.09;87.12;100629.21;435980;1251;140327;-72
2023/11/22 18:03:16;;;;;;;132.00;84.20;;;;;;;-6.06;87.77;100604.55;435513;1251;139715;-73
2023/11/22 18:13:22;;;;;;;102.30;72.00;;;;;;;-6.08;88.05;100552.02;435491;1254;140930;-72
2023/11/22 18:23:28;;;;;;;95.50;68.10;;;;;;;-6.11;88.48;100526.72;437281;1251;140327;-71
2023/11/22 18:33:35;;;;;;;88.50;67.60;;;;;;;-6.12;89.12;100524.48;435700;1253;139760;-72
2023/11/22 18:43:41;;;;;;;95.80;72.90;;;;;;;-6.11;89.78;100509.50;435608;1251;141113;-73
2023/11/22 18:53:49;;;;;;;96.90;75.70;;;;;;;-6.11;90.14;100478.48;435627;1251;140630;-72
2023/11/22 19:03:56;;;;;;;100.10;77.70;;;;;;;-6.08;91.02;100491.67;436056;1251;140573;-72
2023/11/22 19:14:03;;;;;;;112.20;81.00;;;;;;;-6.04;91.61;100521.23;435527;1251;140879;-67
2023/11/22 19:24:10;;;;;;;117.00;83.90;;;;;;;-5.98;92.33;100527.79;435714;1250;142559;-67
2023/11/22 19:34:16;;;;;;;113.10;84.70;;;;;;;-5.95;92.50;100500.89;436613;1251;139979;-67
2023/11/22 19:44:22;;;;;;;154.90;115.90;;;;;;;-5.96;92.86;100477.86;435816;1251;139846;-66
2023/11/22 19:54:30;;;;;;;173.60;119.90;;;;;;;-5.92;93.50;100467.70;435658;1252;140337;-68
2023/11/22 20:04:36;;;;;;;153.40;110.40;;;;;;;-5.85;94.17;100439.17;436572;1253;140299;-67
2023/11/22 20:14:43;;;;;;;127.60;91.90;;;;;;;-5.74;94.78;100425.70;435533;1253;140382;-67
2023/11/22 20:24:49;;;;;;;111.40;78.50;;;;;;;-5.62;94.89;100410.36;435944;1251;140488;-67
2023/11/22 20:34:55;;;;;;;84.90;66.70;;;;;;;-5.53;94.86;100402.83;436223;1249;140276;-68
2023/11/22 20:45:04;;;;;;;68.50;49.90;;;;;;;-5.43;94.79;100398.19;437380;1250;140010;-70
2023/11/22 20:55:11;;;;;;;57.90;42.60;;;;;;;-5.36;94.53;100368.95;438308;1253;140198;-67
2023/11/22 21:05:18;;;;;;;56.40;40.50;;;;;;;-5.28;94.63;100363.23;436192;1250;141299;-63
2023/11/22 21:15:24;;;;;;;52.80;38.80;;;;;;;-5.22;94.59;100351.88;435764;1253;140210;-78
2023/11/22 21:25:31;;;;;;;47.20;35.90;;;;;;;-5.18;94.72;100335.38;438144;1249;140138;-60
2023/11/22 21:35:39;;;;;;;52.10;37.60;;;;;;;-5.09;95.11;100324.20;435601;1251;140813;-62
2023/11/22 21:45:45;;;;;;;46.00;33.20;;;;;;;-4.99;95.26;100312.38;435730;1250;140283;-61
2023/11/22 21:55:52;;;;;;;42.90;29.40;;;;;;;-4.87;95.11;100292.35;435803;1251;140791;-61
2023/11/22 22:05:59;;;;;;;36.40;24.60;;;;;;;-4.78;95.01;100289.37;437990;1249;141378;-61
2023/11/22 22:16:09;;;;;;;34.60;25.90;;;;;;;-4.68;94.71;100272.55;437897;1252;140014;-61
2023/11/22 22:26:17;;;;;;;31.00;21.50;;;;;;;-4.60;94.31;100250.05;436626;1250;140776;-61
2023/11/22 22:36:23;;;;;;;31.60;23.20;;;;;;;-4.56;94.10;100226.34;435709;1252;141522;-60
2023/11/22 22:46:30;;;;;;;28.30;20.60;;;;;;;-4.57;93.86;100198.14;435944;1251;142254;-61
2023/11/22 22:56:36;;;;;;;32.80;22.10;;;;;;;-4.63;93.69;100163.58;435267;1253;139819;-61
2023/11/22 23:06:43;;;;;;;29.60;21.30;;;;;;;-4.73;93.60;100175.13;435110;1253;140868;-60
2023/11/22 23:16:49;;;;;;;26.30;21.50;;;;;;;-4.86;93.82;100151.80;435606;1254;140633;-60
2023/11/22 23:26:55;;;;;;;29.40;21.80;;;;;;;-4.98;93.87;100127.45;436523;1250;140050;-61
2023/11/22 23:37:03;;;;;;;26.80;19.40;;;;;;;-5.09;94.10;100115.73;435473;1253;140089;-66
2023/11/22 23:47:10;;;;;;;33.60;21.60;;;;;;;-5.16;94.55;100097.41;436085;1254;139819;-65
2023/11/22 23:57:16;;;;;;;33.20;24.00;;;;;;;-5.22;94.92;100041.55;436553;1251;274705;-66
